sensor_id;sensor_type;location;lat;lon;timestamp;pressure;altitude;pressure_sealevel;temperature
15360;BMP280;7779;49.596;11.070;2023-03-31T00:01:36;97728.81;;;12.48
15360;BMP280;7779;49.596;11.070;2023-03-31T00:04:08;97721.47;;;12.53
15360;BMP280;7779;49.596;11.070;2023-03-31T00:06:38;97723.31;;;12.57
15360;BMP280;7779;49.596;11.070;2023-03-31T00:09:14;97710.88;;;12.60
15360;BMP280;7779;49.596;11.070;2023-03-31T00:11:50;97701.84;;;12.65
15360;BMP280;7779;49.596;11.070;2023-03-31T00:14:18;97685.28;;;12.70
15360;BMP280;7779;49.596;11.070;2023-03-31T00:16:45;97672.00;;;12.74
15360;BMP280;7779;49.596;11.070;2023-03-31T00:19:12;97674.66;;;12.77
15360;BMP280;7779;49.596;11.070;2023-03-31T00:21:49;97663.94;;;12.81
15360;BMP280;7779;49.596;11.070;2023-03-31T00:24:17;97661.56;;;12.84
15360;BMP280;7779;49.596;11.070;2023-03-31T00:26:43;97660.00;;;12.87
15360;BMP280;7779;49.596;11.070;2023-03-31T00:29:12;97653.38;;;12.89
15360;BMP280;7779;49.596;11.070;2023-03-31T00:31:38;97646.75;;;12.91
15360;BMP280;7779;49.596;11.070;2023-03-31T00:34:05;97642.69;;;12.94
15360;BMP280;7779;49.596;11.070;2023-03-31T00:36:33;97641.06;;;12.96
15360;BMP280;7779;49.596;11.070;2023-03-31T00:39:04;97621.81;;;12.97
15360;BMP280;7779;49.596;11.070;2023-03-31T00:41:34;97628.50;;;12.96
15360;BMP280;7779;49.596;11.070;2023-03-31T00:44:15;97622.69;;;12.97
15360;BMP280;7779;49.596;11.070;2023-03-31T00:47:11;97620.13;;;12.96
15360;BMP280;7779;49.596;11.070;2023-03-31T00:49:43;97620.06;;;12.94
15360;BMP280;7779;49.596;11.070;2023-03-31T00:52:23;97616.56;;;12.91
15360;BMP280;7779;49.596;11.070;2023-03-31T00:55:11;97622.44;;;12.91
15360;BMP280;7779;49.596;11.070;2023-03-31T00:57:41;97609.78;;;12.88
15360;BMP280;7779;49.596;11.070;2023-03-31T01:00:11;97608.13;;;12.89
15360;BMP280;7779;49.596;11.070;2023-03-31T01:02:47;97602.31;;;12.90
15360;BMP280;7779;49.596;11.070;2023-03-31T01:05:28;97602.25;;;12.88
15360;BMP280;7779;49.596;11.070;2023-03-31T01:07:56;97599.69;;;12.87
15360;BMP280;7779;49.596;11.070;2023-03-31T01:10:24;97598.84;;;12.87
15360;BMP280;7779;49.596;11.070;2023-03-31T01:12:53;97593.81;;;12.87
15360;BMP280;7779;49.596;11.070;2023-03-31T01:15:21;97590.38;;;12.85
15360;BMP280;7779;49.596;11.070;2023-03-31T01:17:47;97577.75;;;12.83
15360;BMP280;7779;49.596;11.070;2023-03-31T01:27:36;97563.09;;;12.73
15360;BMP280;7779;49.596;11.070;2023-03-31T01:37:08;97557.19;;;12.71
15360;BMP280;7779;49.596;11.070;2023-03-31T01:42:59;97544.66;;;12.73
15360;BMP280;7779;49.596;11.070;2023-03-31T01:45:36;97532.09;;;12.73
15360;BMP280;7779;49.596;11.070;2023-03-31T01:48:15;97534.63;;;12.73
15360;BMP280;7779;49.596;11.070;2023-03-31T01:51:17;97524.50;;;12.71
15360;BMP280;7779;49.596;11.070;2023-03-31T01:54:01;97531.19;;;12.71
15360;BMP280;7779;49.596;11.070;2023-03-31T01:56:38;97518.50;;;12.68
15360;BMP280;7779;49.596;11.070;2023-03-31T01:59:21;97513.44;;;12.66
15360;BMP280;7779;49.596;11.070;2023-03-31T02:02:04;97508.31;;;12.63
15360;BMP280;7779;49.596;11.070;2023-03-31T02:04:45;97512.38;;;12.60
15360;BMP280;7779;49.596;11.070;2023-03-31T02:07:18;97499.69;;;12.57
15360;BMP280;7779;49.596;11.070;2023-03-31T02:09:55;97499.69;;;12.57
15360;BMP280;7779;49.596;11.070;2023-03-31T02:12:27;97508.84;;;12.55
15360;BMP280;7779;49.596;11.070;2023-03-31T02:14:55;97497.94;;;12.54
15360;BMP280;7779;49.596;11.070;2023-03-31T02:17:27;97489.56;;;12.54
15360;BMP280;7779;49.596;11.070;2023-03-31T02:20:02;97496.16;;;12.52
15360;BMP280;7779;49.596;11.070;2023-03-31T02:22:35;97487.72;;;12.50
15360;BMP280;7779;49.596;11.070;2023-03-31T02:25:05;97482.69;;;12.50
15360;BMP280;7779;49.596;11.070;2023-03-31T02:27:37;97481.06;;;12.50
15360;BMP280;7779;49.596;11.070;2023-03-31T02:30:06;97480.19;;;12.50
15360;BMP280;7779;49.596;11.070;2023-03-31T02:32:40;97475.16;;;12.50
15360;BMP280;7779;49.596;11.070;2023-03-31T02:35:14;97480.25;;;12.51
15360;BMP280;7779;49.596;11.070;2023-03-31T02:37:41;97477.72;;;12.51
15360;BMP280;7779;49.596;11.070;2023-03-31T02:40:15;97472.81;;;12.54
15360;BMP280;7779;49.596;11.070;2023-03-31T02:42:42;97468.66;;;12.55
15360;BMP280;7779;49.596;11.070;2023-03-31T02:45:40;97467.88;;;12.57
15360;BMP280;7779;49.596;11.070;2023-03-31T02:48:20;97457.00;;;12.57
15360;BMP280;7779;49.596;11.070;2023-03-31T02:54:24;97448.66;;;12.58
15360;BMP280;7779;49.596;11.070;2023-03-31T03:12:06;97419.63;;;12.66
15360;BMP280;7779;49.596;11.070;2023-03-31T03:14:47;97417.09;;;12.66
15360;BMP280;7779;49.596;11.070;2023-03-31T03:17:31;97419.69;;;12.67
15360;BMP280;7779;49.596;11.070;2023-03-31T03:20:01;97417.22;;;12.69
15360;BMP280;7779;49.596;11.070;2023-03-31T03:22:32;97405.56;;;12.71
15360;BMP280;7779;49.596;11.070;2023-03-31T03:24:57;97405.63;;;12.74
15360;BMP280;7779;49.596;11.070;2023-03-31T03:27:23;97403.09;;;12.72
15360;BMP280;7779;49.596;11.070;2023-03-31T03:29:49;97402.34;;;12.75
15360;BMP280;7779;49.596;11.070;2023-03-31T03:32:14;97399.03;;;12.76
15360;BMP280;7779;49.596;11.070;2023-03-31T03:34:40;97385.63;;;12.77
15360;BMP280;7779;49.596;11.070;2023-03-31T03:37:06;97389.06;;;12.79
15360;BMP280;7779;49.596;11.070;2023-03-31T03:39:32;97379.88;;;12.79
15360;BMP280;7779;49.596;11.070;2023-03-31T03:41:58;97375.63;;;12.78
15360;BMP280;7779;49.596;11.070;2023-03-31T03:44:23;97374.84;;;12.79
15360;BMP280;7779;49.596;11.070;2023-03-31T03:46:49;97366.44;;;12.79
15360;BMP280;7779;49.596;11.070;2023-03-31T03:49:15;97350.59;;;12.80
15360;BMP280;7779;49.596;11.070;2023-03-31T03:51:40;97349.00;;;12.82
15360;BMP280;7779;49.596;11.070;2023-03-31T03:54:06;97340.63;;;12.83
15360;BMP280;7779;49.596;11.070;2023-03-31T03:56:32;97342.34;;;12.84
15360;BMP280;7779;49.596;11.070;2023-03-31T03:58:58;97337.31;;;12.84
15360;BMP280;7779;49.596;11.070;2023-03-31T04:01:24;97329.84;;;12.85
15360;BMP280;7779;49.596;11.070;2023-03-31T04:03:50;97322.34;;;12.87
15360;BMP280;7779;49.596;11.070;2023-03-31T04:06:15;97327.44;;;12.89
15360;BMP280;7779;49.596;11.070;2023-03-31T04:08:41;97327.44;;;12.89
15360;BMP280;7779;49.596;11.070;2023-03-31T04:11:17;97325.84;;;12.91
15360;BMP280;7779;49.596;11.070;2023-03-31T04:13:44;97321.63;;;12.90
15360;BMP280;7779;49.596;11.070;2023-03-31T04:16:10;97314.88;;;12.89
15360;BMP280;7779;49.596;11.070;2023-03-31T04:18:36;97314.09;;;12.90
15360;BMP280;7779;49.596;11.070;2023-03-31T04:21:09;97297.34;;;12.91
15360;BMP280;7779;49.596;11.070;2023-03-31T04:23:38;97304.03;;;12.90
15360;BMP280;7779;49.596;11.070;2023-03-31T04:26:16;97303.19;;;12.90
15360;BMP280;7779;49.596;11.070;2023-03-31T04:28:43;97296.50;;;12.90
15360;BMP280;7779;49.596;11.070;2023-03-31T04:31:15;97293.09;;;12.88
15360;BMP280;7779;49.596;11.070;2023-03-31T04:33:58;97301.47;;;12.89
15360;BMP280;7779;49.596;11.070;2023-03-31T04:36:28;97282.97;;;12.87
15360;BMP280;7779;49.596;11.070;2023-03-31T04:38:56;97278.78;;;12.88
15360;BMP280;7779;49.596;11.070;2023-03-31T04:41:24;97269.59;;;12.88
15360;BMP280;7779;49.596;11.070;2023-03-31T04:43:52;97259.53;;;12.88
15360;BMP280;7779;49.596;11.070;2023-03-31T04:46:18;97262.09;;;12.89
15360;BMP280;7779;49.596;11.070;2023-03-31T04:48:44;97247.84;;;12.88
15360;BMP280;7779;49.596;11.070;2023-03-31T04:51:09;97248.75;;;12.90
15360;BMP280;7779;49.596;11.070;2023-03-31T04:53:35;97242.00;;;12.89
15360;BMP280;7779;49.596;11.070;2023-03-31T04:56:01;97237.84;;;12.90
15360;BMP280;7779;49.596;11.070;2023-03-31T04:58:28;97242.88;;;12.91
15360;BMP280;7779;49.596;11.070;2023-03-31T05:00:53;97237.06;;;12.92
15360;BMP280;7779;49.596;11.070;2023-03-31T05:03:20;97227.91;;;12.94
15360;BMP280;7779;49.596;11.070;2023-03-31T05:05:46;97217.06;;;12.95
15360;BMP280;7779;49.596;11.070;2023-03-31T05:08:11;97215.38;;;12.96
15360;BMP280;7779;49.596;11.070;2023-03-31T05:10:37;97222.09;;;12.95
15360;BMP280;7779;49.596;11.070;2023-03-31T05:13:03;97215.34;;;12.94
15360;BMP280;7779;49.596;11.070;2023-03-31T05:15:28;97216.19;;;12.95
15360;BMP280;7779;49.596;11.070;2023-03-31T05:17:56;97219.59;;;12.97
15360;BMP280;7779;49.596;11.070;2023-03-31T05:20:23;97218.78;;;12.98
15360;BMP280;7779;49.596;11.070;2023-03-31T05:22:48;97218.84;;;12.99
15360;BMP280;7779;49.596;11.070;2023-03-31T05:25:15;97206.31;;;13.01
15360;BMP280;7779;49.596;11.070;2023-03-31T05:27:45;97202.19;;;13.03
15360;BMP280;7779;49.596;11.070;2023-03-31T05:30:13;97187.94;;;13.03
15360;BMP280;7779;49.596;11.070;2023-03-31T05:32:39;97176.22;;;13.04
15360;BMP280;7779;49.596;11.070;2023-03-31T05:35:05;97169.56;;;13.04
15360;BMP280;7779;49.596;11.070;2023-03-31T05:37:32;97159.50;;;13.04
15360;BMP280;7779;49.596;11.070;2023-03-31T05:39:58;97154.50;;;13.06
15360;BMP280;7779;49.596;11.070;2023-03-31T05:42:23;97147.00;;;13.07
15360;BMP280;7779;49.596;11.070;2023-03-31T05:44:49;97143.69;;;13.08
15360;BMP280;7779;49.596;11.070;2023-03-31T05:47:15;97142.88;;;13.09
15360;BMP280;7779;49.596;11.070;2023-03-31T05:49:41;97125.34;;;13.12
15360;BMP280;7779;49.596;11.070;2023-03-31T05:52:08;97127.97;;;13.15
15360;BMP280;7779;49.596;11.070;2023-03-31T05:54:34;97125.47;;;13.17
15360;BMP280;7779;49.596;11.070;2023-03-31T05:57:00;97142.38;;;13.21
15360;BMP280;7779;49.596;11.070;2023-03-31T05:59:26;97142.38;;;13.22
15360;BMP280;7779;49.596;11.070;2023-03-31T06:01:52;97128.19;;;13.24
15360;BMP280;7779;49.596;11.070;2023-03-31T06:04:18;97129.09;;;13.26
15360;BMP280;7779;49.596;11.070;2023-03-31T06:06:43;97116.53;;;13.26
15360;BMP280;7779;49.596;11.070;2023-03-31T06:09:11;97117.41;;;13.28
15360;BMP280;7779;49.596;11.070;2023-03-31T06:11:37;97117.41;;;13.28
15360;BMP280;7779;49.596;11.070;2023-03-31T06:14:03;97116.59;;;13.29
15360;BMP280;7779;49.596;11.070;2023-03-31T06:16:30;97114.91;;;13.28
15360;BMP280;7779;49.596;11.070;2023-03-31T06:18:56;97109.88;;;13.29
15360;BMP280;7779;49.596;11.070;2023-03-31T06:21:22;97100.69;;;13.30
15360;BMP280;7779;49.596;11.070;2023-03-31T06:23:48;97095.66;;;13.30
15360;BMP280;7779;49.596;11.070;2023-03-31T06:26:17;97103.28;;;13.33
15360;BMP280;7779;49.596;11.070;2023-03-31T06:28:44;97107.50;;;13.34
15360;BMP280;7779;49.596;11.070;2023-03-31T06:31:14;97110.06;;;13.35
15360;BMP280;7779;49.596;11.070;2023-03-31T06:33:41;97111.81;;;13.38
15360;BMP280;7779;49.596;11.070;2023-03-31T06:36:09;97116.03;;;13.39
15360;BMP280;7779;49.596;11.070;2023-03-31T06:38:37;97115.25;;;13.41
15360;BMP280;7779;49.596;11.070;2023-03-31T06:41:04;97121.16;;;13.43
15360;BMP280;7779;49.596;11.070;2023-03-31T06:43:31;97118.66;;;13.43
15360;BMP280;7779;49.596;11.070;2023-03-31T06:45:57;97119.56;;;13.47
15360;BMP280;7779;49.596;11.070;2023-03-31T06:48:24;97122.16;;;13.48
15360;BMP280;7779;49.596;11.070;2023-03-31T06:50:51;97124.69;;;13.50
15360;BMP280;7779;49.596;11.070;2023-03-31T06:53:17;97120.50;;;13.50
15360;BMP280;7779;49.596;11.070;2023-03-31T06:55:43;97130.63;;;13.52
15360;BMP280;7779;49.596;11.070;2023-03-31T06:58:09;97139.00;;;13.52
15360;BMP280;7779;49.596;11.070;2023-03-31T07:00:36;97134.81;;;13.53
15360;BMP280;7779;49.596;11.070;2023-03-31T07:03:03;97137.34;;;13.53
15360;BMP280;7779;49.596;11.070;2023-03-31T07:05:30;97134.03;;;13.54
15360;BMP280;7779;49.596;11.070;2023-03-31T07:07:58;97128.16;;;13.55
15360;BMP280;7779;49.596;11.070;2023-03-31T07:10:27;97121.44;;;13.54
15360;BMP280;7779;49.596;11.070;2023-03-31T07:12:53;97124.81;;;13.54
15360;BMP280;7779;49.596;11.070;2023-03-31T07:15:19;97119.72;;;13.53
15360;BMP280;7779;49.596;11.070;2023-03-31T07:17:45;97124.75;;;13.53
15360;BMP280;7779;49.596;11.070;2023-03-31T07:20:13;97113.91;;;13.54
15360;BMP280;7779;49.596;11.070;2023-03-31T07:22:40;97110.53;;;13.53
15360;BMP280;7779;49.596;11.070;2023-03-31T07:25:08;97097.91;;;13.52
15360;BMP280;7779;49.596;11.070;2023-03-31T07:27:35;97088.66;;;13.51
15360;BMP280;7779;49.596;11.070;2023-03-31T07:30:02;97082.88;;;13.53
15360;BMP280;7779;49.596;11.070;2023-03-31T07:32:28;97075.41;;;13.58
15360;BMP280;7779;49.596;11.070;2023-03-31T07:34:54;97072.13;;;13.60
15360;BMP280;7779;49.596;11.070;2023-03-31T07:37:19;97066.38;;;13.64
15360;BMP280;7779;49.596;11.070;2023-03-31T07:39:45;97063.06;;;13.66
15360;BMP280;7779;49.596;11.070;2023-03-31T07:42:11;97055.63;;;13.71
15360;BMP280;7779;49.596;11.070;2023-03-31T07:44:37;97054.94;;;13.76
15360;BMP280;7779;49.596;11.070;2023-03-31T07:47:03;97056.66;;;13.79
15360;BMP280;7779;49.596;11.070;2023-03-31T07:49:33;97040.75;;;13.81
15360;BMP280;7779;49.596;11.070;2023-03-31T07:51:59;97028.25;;;13.84
15360;BMP280;7779;49.596;11.070;2023-03-31T07:54:25;97029.97;;;13.85
15360;BMP280;7779;49.596;11.070;2023-03-31T07:56:51;97014.88;;;13.85
15360;BMP280;7779;49.596;11.070;2023-03-31T07:59:17;97018.28;;;13.89
15360;BMP280;7779;49.596;11.070;2023-03-31T08:01:43;97009.13;;;13.91
15360;BMP280;7779;49.596;11.070;2023-03-31T08:04:10;97019.25;;;13.94
15360;BMP280;7779;49.596;11.070;2023-03-31T08:06:36;97014.25;;;13.95
15360;BMP280;7779;49.596;11.070;2023-03-31T08:09:03;97013.44;;;13.96
15360;BMP280;7779;49.596;11.070;2023-03-31T08:11:31;97013.44;;;13.96
15360;BMP280;7779;49.596;11.070;2023-03-31T08:13:57;97004.97;;;13.94
15360;BMP280;7779;49.596;11.070;2023-03-31T08:16:23;97000.78;;;13.93
15360;BMP280;7779;49.596;11.070;2023-03-31T08:18:49;97007.50;;;13.94
15360;BMP280;7779;49.596;11.070;2023-03-31T08:21:15;97011.69;;;13.94
15360;BMP280;7779;49.596;11.070;2023-03-31T08:23:40;97009.13;;;13.92
15360;BMP280;7779;49.596;11.070;2023-03-31T08:26:17;96999.06;;;13.92
15360;BMP280;7779;49.596;11.070;2023-03-31T08:28:43;96988.09;;;13.90
15360;BMP280;7779;49.596;11.070;2023-03-31T08:31:09;96991.47;;;13.89
15360;BMP280;7779;49.596;11.070;2023-03-31T08:33:36;96983.91;;;13.89
15360;BMP280;7779;49.596;11.070;2023-03-31T08:36:07;96978.88;;;13.89
15360;BMP280;7779;49.596;11.070;2023-03-31T08:38:39;96973.00;;;13.90
15360;BMP280;7779;49.596;11.070;2023-03-31T08:46:46;96895.81;;;13.89
15360;BMP280;7779;49.596;11.070;2023-03-31T08:49:17;96819.50;;;13.92
15360;BMP280;7779;49.596;11.070;2023-03-31T08:51:54;96864.00;;;13.94
15360;BMP280;7779;49.596;11.070;2023-03-31T08:54:34;96876.72;;;14.00
15360;BMP280;7779;49.596;11.070;2023-03-31T08:57:05;96878.59;;;14.07
15360;BMP280;7779;49.596;11.070;2023-03-31T08:59:35;96880.53;;;14.20
15360;BMP280;7779;49.596;11.070;2023-03-31T09:02:41;96885.06;;;14.39
15360;BMP280;7779;49.596;11.070;2023-03-31T09:05:44;96892.09;;;14.54
15360;BMP280;7779;49.596;11.070;2023-03-31T09:08:50;96896.56;;;14.69
15360;BMP280;7779;49.596;11.070;2023-03-31T09:11:33;96879.13;;;14.82
15360;BMP280;7779;49.596;11.070;2023-03-31T09:14:20;96890.31;;;14.96
15360;BMP280;7779;49.596;11.070;2023-03-31T09:16:58;96885.50;;;15.11
15360;BMP280;7779;49.596;11.070;2023-03-31T09:20:03;96873.16;;;15.25
15360;BMP280;7779;49.596;11.070;2023-03-31T09:22:41;96874.16;;;15.35
15360;BMP280;7779;49.596;11.070;2023-03-31T09:25:19;96865.88;;;15.45
15360;BMP280;7779;49.596;11.070;2023-03-31T09:27:49;96871.13;;;15.58
15360;BMP280;7779;49.596;11.070;2023-03-31T09:30:30;96854.47;;;15.69
15360;BMP280;7779;49.596;11.070;2023-03-31T09:33:13;96861.25;;;15.73
15360;BMP280;7779;49.596;11.070;2023-03-31T09:35:40;96859.63;;;15.78
15360;BMP280;7779;49.596;11.070;2023-03-31T09:38:05;96858.84;;;15.85
15360;BMP280;7779;49.596;11.070;2023-03-31T09:40:31;96853.06;;;15.92
15360;BMP280;7779;49.596;11.070;2023-03-31T09:43:05;96852.34;;;16.02
15360;BMP280;7779;49.596;11.070;2023-03-31T09:45:33;96849.91;;;16.12
15360;BMP280;7779;49.596;11.070;2023-03-31T09:48:04;96840.78;;;16.18
15360;BMP280;7779;49.596;11.070;2023-03-31T09:50:42;96842.56;;;16.27
15360;BMP280;7779;49.596;11.070;2023-03-31T09:53:20;96844.31;;;16.35
15360;BMP280;7779;49.596;11.070;2023-03-31T09:55:53;96836.00;;;16.43
15360;BMP280;7779;49.596;11.070;2023-03-31T09:58:21;96837.78;;;16.52
15360;BMP280;7779;49.596;11.070;2023-03-31T10:01:01;96836.25;;;16.69
15360;BMP280;7779;49.596;11.070;2023-03-31T10:03:29;96837.25;;;16.84
15360;BMP280;7779;49.596;11.070;2023-03-31T10:06:07;96842.50;;;17.09
15360;BMP280;7779;49.596;11.070;2023-03-31T10:08:46;96835.09;;;17.30
15360;BMP280;7779;49.596;11.070;2023-03-31T10:11:13;96834.31;;;17.41
15360;BMP280;7779;49.596;11.070;2023-03-31T10:13:48;96820.03;;;17.54
15360;BMP280;7779;49.596;11.070;2023-03-31T10:16:32;96823.47;;;17.63
15360;BMP280;7779;49.596;11.070;2023-03-31T10:19:28;96825.19;;;17.71
15360;BMP280;7779;49.596;11.070;2023-03-31T10:22:05;96821.84;;;17.75
15360;BMP280;7779;49.596;11.070;2023-03-31T10:24:44;96816.81;;;17.81
15360;BMP280;7779;49.596;11.070;2023-03-31T10:27:25;96817.69;;;17.89
15360;BMP280;7779;49.596;11.070;2023-03-31T10:29:57;96810.09;;;17.95
15360;BMP280;7779;49.596;11.070;2023-03-31T10:32:28;96815.19;;;18.02
15360;BMP280;7779;49.596;11.070;2023-03-31T10:34:57;96794.97;;;18.08
15360;BMP280;7779;49.596;11.070;2023-03-31T10:37:26;96791.59;;;18.11
15360;BMP280;7779;49.596;11.070;2023-03-31T10:39:59;96798.38;;;18.12
15360;BMP280;7779;49.596;11.070;2023-03-31T10:42:27;96793.31;;;18.16
15360;BMP280;7779;49.596;11.070;2023-03-31T10:45:26;96787.44;;;18.26
15360;BMP280;7779;49.596;11.070;2023-03-31T10:47:58;96784.91;;;18.37
15360;BMP280;7779;49.596;11.070;2023-03-31T10:50:34;96781.53;;;18.43
15360;BMP280;7779;49.596;11.070;2023-03-31T10:53:12;96773.13;;;18.53
15360;BMP280;7779;49.596;11.070;2023-03-31T10:56:11;96771.44;;;18.64
15360;BMP280;7779;49.596;11.070;2023-03-31T11:08:14;96737.59;;;18.77
15360;BMP280;7779;49.596;11.070;2023-03-31T11:14:43;96753.66;;;19.09
15360;BMP280;7779;49.596;11.070;2023-03-31T11:26:00;96758.72;;;18.23
15360;BMP280;7779;49.596;11.070;2023-03-31T11:29:02;96739.13;;;17.82
15360;BMP280;7779;49.596;11.070;2023-03-31T11:31:51;96728.03;;;17.50
15360;BMP280;7779;49.596;11.070;2023-03-31T11:37:12;96735.31;;;16.95
15360;BMP280;7779;49.596;11.070;2023-03-31T11:45:41;96761.13;;;16.56
15360;BMP280;7779;49.596;11.070;2023-03-31T11:49:14;96774.53;;;16.47
15360;BMP280;7779;49.596;11.070;2023-03-31T11:51:26;96769.41;;;16.39
15360;BMP280;7779;49.596;11.070;2023-03-31T11:53:57;96776.06;;;16.31
15360;BMP280;7779;49.596;11.070;2023-03-31T11:56:35;96769.22;;;16.21
15360;BMP280;7779;49.596;11.070;2023-03-31T11:59:03;96779.22;;;16.10
15360;BMP280;7779;49.596;11.070;2023-03-31T12:02:31;96780.78;;;16.00
15360;BMP280;7779;49.596;11.070;2023-03-31T12:05:04;96805.00;;;15.84
15360;BMP280;7779;49.596;11.070;2023-03-31T12:07:40;96837.66;;;15.71
15360;BMP280;7779;49.596;11.070;2023-03-31T12:10:36;96802.09;;;15.56
15360;BMP280;7779;49.596;11.070;2023-03-31T12:13:47;96797.81;;;15.49
15360;BMP280;7779;49.596;11.070;2023-03-31T12:16:36;96801.97;;;15.46
15360;BMP280;7779;49.596;11.070;2023-03-31T12:19:26;96804.50;;;15.46
15360;BMP280;7779;49.596;11.070;2023-03-31T12:22:09;96791.03;;;15.45
15360;BMP280;7779;49.596;11.070;2023-03-31T12:24:37;96780.09;;;15.45
15360;BMP280;7779;49.596;11.070;2023-03-31T12:29:42;96759.94;;;15.46
15360;BMP280;7779;49.596;11.070;2023-03-31T12:32:21;96763.25;;;15.45
15360;BMP280;7779;49.596;11.070;2023-03-31T12:35:15;96780.03;;;15.40
15360;BMP280;7779;49.596;11.070;2023-03-31T12:40:44;96783.28;;;15.32
15360;BMP280;7779;49.596;11.070;2023-03-31T12:49:54;96762.16;;;15.25
15360;BMP280;7779;49.596;11.070;2023-03-31T12:55:26;96748.16;;;15.48
15360;BMP280;7779;49.596;11.070;2023-03-31T13:01:18;96742.59;;;15.73
15360;BMP280;7779;49.596;11.070;2023-03-31T13:04:06;96793.06;;;15.73
15360;BMP280;7779;49.596;11.070;2023-03-31T13:11:41;96824.69;;;15.46
15360;BMP280;7779;49.596;11.070;2023-03-31T13:14:35;96842.06;;;15.26
15360;BMP280;7779;49.596;11.070;2023-03-31T13:17:25;96832.44;;;15.03
15360;BMP280;7779;49.596;11.070;2023-03-31T13:19:56;96833.03;;;14.89
15360;BMP280;7779;49.596;11.070;2023-03-31T13:22:44;96798.31;;;14.73
15360;BMP280;7779;49.596;11.070;2023-03-31T13:27:58;96753.44;;;14.51
15360;BMP280;7779;49.596;11.070;2023-03-31T13:44:46;96711.78;;;14.73
15360;BMP280;7779;49.596;11.070;2023-03-31T13:47:30;96711.22;;;14.90
15360;BMP280;7779;49.596;11.070;2023-03-31T13:53:46;96720.16;;;15.29
15360;BMP280;7779;49.596;11.070;2023-03-31T13:56:39;96709.38;;;15.42
15360;BMP280;7779;49.596;11.070;2023-03-31T14:00:12;96714.63;;;15.55
15360;BMP280;7779;49.596;11.070;2023-03-31T14:02:59;96713.03;;;15.64
15360;BMP280;7779;49.596;11.070;2023-03-31T14:05:41;96722.41;;;15.76
15360;BMP280;7779;49.596;11.070;2023-03-31T14:08:19;96720.03;;;15.88
15360;BMP280;7779;49.596;11.070;2023-03-31T14:10:49;96715.09;;;16.01
15360;BMP280;7779;49.596;11.070;2023-03-31T14:13:18;96716.09;;;16.16
15360;BMP280;7779;49.596;11.070;2023-03-31T14:15:52;96709.50;;;16.27
15360;BMP280;7779;49.596;11.070;2023-03-31T14:18:30;96701.13;;;16.34
15360;BMP280;7779;49.596;11.070;2023-03-31T14:21:30;96692.78;;;16.44
15360;BMP280;7779;49.596;11.070;2023-03-31T14:24:27;96688.66;;;16.53
15360;BMP280;7779;49.596;11.070;2023-03-31T14:30:41;96665.97;;;16.64
15360;BMP280;7779;49.596;11.070;2023-03-31T14:36:47;96691.31;;;16.73
15360;BMP280;7779;49.596;11.070;2023-03-31T14:39:30;96686.25;;;16.73
15360;BMP280;7779;49.596;11.070;2023-03-31T14:42:02;96679.53;;;16.72
15360;BMP280;7779;49.596;11.070;2023-03-31T14:44:28;96667.69;;;16.69
15360;BMP280;7779;49.596;11.070;2023-03-31T14:46:58;96671.06;;;16.67
15360;BMP280;7779;49.596;11.070;2023-03-31T14:49:36;96657.56;;;16.66
15360;BMP280;7779;49.596;11.070;2023-03-31T14:52:17;96663.47;;;16.67
15360;BMP280;7779;49.596;11.070;2023-03-31T14:54:45;96651.66;;;16.67
15360;BMP280;7779;49.596;11.070;2023-03-31T14:57:17;96655.03;;;16.66
15360;BMP280;7779;49.596;11.070;2023-03-31T14:59:48;96647.44;;;16.65
15360;BMP280;7779;49.596;11.070;2023-03-31T15:02:38;96650.00;;;16.69
15360;BMP280;7779;49.596;11.070;2023-03-31T15:05:21;96656.75;;;16.72
15360;BMP280;7779;49.596;11.070;2023-03-31T15:07:49;96650.03;;;16.74
15360;BMP280;7779;49.596;11.070;2023-03-31T15:10:20;96648.38;;;16.80
15360;BMP280;7779;49.596;11.070;2023-03-31T15:12:48;96642.53;;;16.88
15360;BMP280;7779;49.596;11.070;2023-03-31T15:15:16;96644.25;;;16.97
15360;BMP280;7779;49.596;11.070;2023-03-31T15:17:45;96649.34;;;17.04
15360;BMP280;7779;49.596;11.070;2023-03-31T15:20:34;96640.16;;;17.18
15360;BMP280;7779;49.596;11.070;2023-03-31T15:23:04;96635.16;;;17.25
15360;BMP280;7779;49.596;11.070;2023-03-31T15:25:42;96636.84;;;17.28
15360;BMP280;7779;49.596;11.070;2023-03-31T15:28:14;96630.06;;;17.27
15360;BMP280;7779;49.596;11.070;2023-03-31T15:30:41;96631.75;;;17.25
15360;BMP280;7779;49.596;11.070;2023-03-31T15:33:20;96636.81;;;17.22
15360;BMP280;7779;49.596;11.070;2023-03-31T15:35:48;96640.19;;;17.21
15360;BMP280;7779;49.596;11.070;2023-03-31T15:38:15;96636.81;;;17.23
15360;BMP280;7779;49.596;11.070;2023-03-31T15:40:44;96632.59;;;17.28
15360;BMP280;7779;49.596;11.070;2023-03-31T15:43:18;96630.13;;;17.33
15360;BMP280;7779;49.596;11.070;2023-03-31T15:45:56;96626.72;;;17.32
15360;BMP280;7779;49.596;11.070;2023-03-31T15:48:48;96630.94;;;17.33
15360;BMP280;7779;49.596;11.070;2023-03-31T15:51:31;96625.06;;;17.33
15360;BMP280;7779;49.596;11.070;2023-03-31T15:53:57;96632.63;;;17.33
15360;BMP280;7779;49.596;11.070;2023-03-31T15:56:40;96627.59;;;17.34
15360;BMP280;7779;49.596;11.070;2023-03-31T15:59:24;96619.97;;;17.36
15360;BMP280;7779;49.596;11.070;2023-03-31T16:01:51;96624.19;;;17.35
15360;BMP280;7779;49.596;11.070;2023-03-31T16:04:18;96614.94;;;17.34
15360;BMP280;7779;49.596;11.070;2023-03-31T16:09:20;96619.97;;;17.36
15360;BMP280;7779;49.596;11.070;2023-03-31T16:11:55;96615.75;;;17.38
15360;BMP280;7779;49.596;11.070;2023-03-31T16:14:32;96614.09;;;17.40
15360;BMP280;7779;49.596;11.070;2023-03-31T16:17:07;96620.81;;;17.38
15360;BMP280;7779;49.596;11.070;2023-03-31T16:19:48;96615.75;;;17.33
15360;BMP280;7779;49.596;11.070;2023-03-31T16:22:25;96621.63;;;17.26
15360;BMP280;7779;49.596;11.070;2023-03-31T16:24:52;96635.13;;;17.21
15360;BMP280;7779;49.596;11.070;2023-03-31T16:27:17;96625.00;;;17.17
15360;BMP280;7779;49.596;11.070;2023-03-31T16:29:43;96620.72;;;17.11
15360;BMP280;7779;49.596;11.070;2023-03-31T16:32:17;96633.31;;;17.05
15360;BMP280;7779;49.596;11.070;2023-03-31T16:34:59;96635.00;;;17.02
15360;BMP280;7779;49.596;11.070;2023-03-31T16:37:26;96640.03;;;16.97
15360;BMP280;7779;49.596;11.070;2023-03-31T16:39:52;96629.06;;;16.94
15360;BMP280;7779;49.596;11.070;2023-03-31T16:42:19;96629.88;;;16.93
15360;BMP280;7779;49.596;11.070;2023-03-31T16:44:45;96634.97;;;16.91
15360;BMP280;7779;49.596;11.070;2023-03-31T16:47:14;96634.13;;;16.89
15360;BMP280;7779;49.596;11.070;2023-03-31T16:49:40;96637.44;;;16.85